LNG Dream — C6VO5 — position and weather

sailwx.info

Track history (hours):
 
Tides and Currents Weather Stations Pressure Air Temp Water Temp Dewpoint Dewpoint Depression Visibility Wind Speed Wind Dir Waves Ship Positions

LNG Dream

Last reported at 2017-Jun-20 12:12 UTC. Time now 2017-Jun-28 15:52 UTC.
Position N 33°58' E 134°56'.
Warning: this ship's position is 8 days out of date.

Length 289.6 m; beam 49 m.

Type: Ship (hazmat cat A). MMSI: 309065000.

Date/timePositionNaut miles runAvg speedWind from/ knotsBaromVisibWave heightAir tempDewpointWater temp
2017-Jun-20 12:12N 33°58' E 134°56'314.0
2017-Jun-20 11:59N 34°01' E 134°56'714.4
2017-Jun-20 11:30N 34°08' E 134°57'712.3
2017-Jun-20 10:59N 34°14' E 134°59'5 9.5
2017-Jun-20 10:28N 34°19' E 134°59'612.8
2017-Jun-20 10:01N 34°25' E 135°02'713.0
2017-Jun-20 09:31N 34°31' E 135°05'4 8.1
2017-Jun-20 09:00N 34°35' E 135°05'4 8.2
2017-Jun-20 08:31N 34°37' E 135°01'611.6
2017-Jun-20 08:00N 34°35' E 134°54'713.0
2017-Jun-20 07:26N 34°33' E 134°46'512.0
2017-Jun-20 06:59N 34°38' E 134°41'8 0.4
2017-Jun-19 08:10N 34°46' E 134°41'0 0.4
2017-Jun-19 07:45N 34°46' E 134°41'3 5.9
2017-Jun-19 07:16N 34°43' E 134°41'2 8.7
2017-Jun-19 07:00N 34°41' E 134°41'611.3
2017-Jun-19 06:30N 34°35' E 134°42'712.4
2017-Jun-19 05:57N 34°35' E 134°51'814.3
2017-Jun-19 05:23N 34°38' E 134°60'411.5
2017-Jun-19 05:00N 34°36' E 135°04'4 7.1
2017-Jun-19 04:30N 34°34' E 135°08'4 7.0
2017-Jun-19 04:00N 34°31' E 135°06'611.2
2017-Jun-19 03:30N 34°26' E 135°04'612.9
2017-Jun-19 03:00N 34°20' E 135°01'612.4
2017-Jun-19 02:31N 34°14' E 134°59'5 9.3
2017-Jun-19 02:00N 34°09' E 134°60'4 7.4
2017-Jun-19 01:31N 34°06' E 134°60'5 9.6
2017-Jun-19 01:00N 34°01' E 134°59'4 6.8
2017-Jun-19 00:27N 33°57' E 134°59'5 7.8
2017-Jun-18 23:46N 33°52' E 134°58'  
Track history (hours):
 
Tides and Currents Weather Stations Pressure Air Temp Water Temp Dewpoint Dewpoint Depression Visibility Wind Speed Wind Dir Waves Ship Positions

LNG Dream

Last reported at 2017-Jun-20 12:12 UTC. Time now 2017-Jun-28 15:52 UTC.
Position N 33°58' E 134°56'.
Warning: this ship's position is 8 days out of date.

Length 289.6 m; beam 49 m.

Type: Ship (hazmat cat A). MMSI: 309065000.

Date/timePositionNaut miles runAvg speedWind from/ knotsBaromVisibWave heightAir tempDewpointWater temp
2017-Jun-20 12:12N 33°58' E 134°56'314.0
2017-Jun-20 11:59N 34°01' E 134°56'714.4
2017-Jun-20 11:30N 34°08' E 134°57'712.3
2017-Jun-20 10:59N 34°14' E 134°59'5 9.5
2017-Jun-20 10:28N 34°19' E 134°59'612.8
2017-Jun-20 10:01N 34°25' E 135°02'713.0
2017-Jun-20 09:31N 34°31' E 135°05'4 8.1
2017-Jun-20 09:00N 34°35' E 135°05'4 8.2
2017-Jun-20 08:31N 34°37' E 135°01'611.6
2017-Jun-20 08:00N 34°35' E 134°54'713.0
2017-Jun-20 07:26N 34°33' E 134°46'512.0
2017-Jun-20 06:59N 34°38' E 134°41'8 0.4
2017-Jun-19 08:10N 34°46' E 134°41'0 0.4
2017-Jun-19 07:45N 34°46' E 134°41'3 5.9
2017-Jun-19 07:16N 34°43' E 134°41'2 8.7
2017-Jun-19 07:00N 34°41' E 134°41'611.3
2017-Jun-19 06:30N 34°35' E 134°42'712.4
2017-Jun-19 05:57N 34°35' E 134°51'814.3
2017-Jun-19 05:23N 34°38' E 134°60'411.5
2017-Jun-19 05:00N 34°36' E 135°04'4 7.1
2017-Jun-19 04:30N 34°34' E 135°08'4 7.0
2017-Jun-19 04:00N 34°31' E 135°06'611.2
2017-Jun-19 03:30N 34°26' E 135°04'612.9
2017-Jun-19 03:00N 34°20' E 135°01'612.4
2017-Jun-19 02:31N 34°14' E 134°59'5 9.3
2017-Jun-19 02:00N 34°09' E 134°60'4 7.4
2017-Jun-19 01:31N 34°06' E 134°60'5 9.6
2017-Jun-19 01:00N 34°01' E 134°59'4 6.8
2017-Jun-19 00:27N 33°57' E 134°59'5 7.8
2017-Jun-18 23:46N 33°52' E 134°58'  

Dump ship's entire track history